Time;durP1;ratioP1;P1;durP2;ratioP2;P2;SDS_P1;SDS_P2;PMS_P1;PMS_P2;Temp;Humidity;BMP_temperature;BMP_pressure;BME280_temperature;BME280_humidity;BME280_pressure;Samples;Min_cycle;Max_cycle;Signal;HPM_P1;HPM_P2
2022/01/19 00:02:06;;;;;;;23.45;6.22;;;19.80;99.90;;;;;;5092554;28;20432;-79
2022/01/19 00:04:32;;;;;;;22.90;6.00;;;19.90;99.90;;;;;;5092507;28;20459;-84
2022/01/19 00:06:59;;;;;;;20.75;5.50;;;19.90;99.90;;;;;;5092336;28;20455;-79
2022/01/19 00:09:26;;;;;;;24.80;5.78;;;19.90;99.90;;;;;;5095075;28;20418;-84
2022/01/19 00:11:53;;;;;;;23.05;5.70;;;19.90;99.90;;;;;;5093835;28;20375;-83
2022/01/19 00:14:20;;;;;;;22.77;5.78;;;20.00;99.90;;;;;;5092288;28;20739;-77
2022/01/19 00:16:47;;;;;;;23.38;5.78;;;20.00;99.90;;;;;;5092032;28;20369;-83
2022/01/19 00:19:14;;;;;;;24.23;5.60;;;20.00;99.90;;;;;;5092079;28;20383;-82
2022/01/19 00:21:41;;;;;;;23.83;5.80;;;20.10;99.90;;;;;;5092113;28;20852;-83
2022/01/19 00:24:08;;;;;;;23.63;6.03;;;20.20;99.90;;;;;;5091984;28;20796;-83
2022/01/19 00:26:35;;;;;;;22.27;6.05;;;20.30;99.90;;;;;;5091909;28;20379;-82
2022/01/19 00:29:02;;;;;;;22.38;6.00;;;20.40;99.90;;;;;;5091701;28;20400;-80
2022/01/19 00:31:29;;;;;;;23.50;6.07;;;20.40;99.90;;;;;;5091823;28;20372;-82
2022/01/19 00:33:56;;;;;;;25.05;5.60;;;20.40;99.90;;;;;;5091706;28;20372;-78
2022/01/19 00:36:23;;;;;;;20.77;5.35;;;20.40;99.90;;;;;;5091584;28;20744;-83
2022/01/19 00:38:50;;;;;;;22.33;5.20;;;20.30;99.90;;;;;;5091389;28;20480;-83
2022/01/19 00:41:17;;;;;;;19.55;5.30;;;20.40;99.90;;;;;;5091456;28;20421;-82
2022/01/19 00:43:44;;;;;;;22.15;5.38;;;20.50;99.90;;;;;;5091600;28;20372;-85
2022/01/19 00:46:11;;;;;;;22.30;5.65;;;20.50;99.90;;;;;;5091887;28;20375;-83
2022/01/19 00:48:40;;;;;;;19.45;5.28;;;20.50;99.90;;;;;;5091457;28;20412;-83
2022/01/19 00:51:07;;;;;;;19.98;5.45;;;20.50;99.90;;;;;;5091671;28;20372;-83
2022/01/19 00:53:34;;;;;;;22.02;5.70;;;20.60;99.90;;;;;;5090646;28;20376;-84
2022/01/19 00:56:01;;;;;;;16.88;4.85;;;20.70;99.90;;;;;;5091317;28;20369;-84
2022/01/19 00:58:28;;;;;;;19.30;5.05;;;20.70;99.90;;;;;;5089873;28;20842;-79
2022/01/19 01:00:55;;;;;;;22.23;5.32;;;20.60;99.90;;;;;;5091110;28;20433;-82
2022/01/19 01:03:22;;;;;;;17.63;5.13;;;20.60;99.90;;;;;;5091097;28;20373;-83
2022/01/19 01:05:49;;;;;;;17.02;4.82;;;20.50;99.90;;;;;;5091078;28;20372;-83
2022/01/19 01:08:16;;;;;;;22.27;5.20;;;20.50;99.90;;;;;;5091079;28;20407;-83
2022/01/19 01:10:43;;;;;;;22.75;4.88;;;20.50;99.90;;;;;;5091026;28;20384;-82
2022/01/19 01:13:29;;;;;;;19.25;5.25;;;20.70;99.90;;;;;;5091002;28;20373;-82
2022/01/19 01:16:17;;;;;;;21.42;5.38;;;20.50;99.90;;;;;;5090857;28;20875;-82
2022/01/19 01:18:44;;;;;;;19.13;5.27;;;20.40;99.90;;;;;;5090881;28;20377;-77
2022/01/19 01:21:11;;;;;;;19.13;5.10;;;20.40;99.90;;;;;;5090752;28;20451;-78
2022/01/19 01:23:38;;;;;;;19.55;5.05;;;20.40;99.90;;;;;;5090718;28;20430;-79
2022/01/19 01:26:07;;;;;;;19.00;5.07;;;20.40;99.90;;;;;;5090691;28;20369;-82
2022/01/19 01:28:34;;;;;;;23.23;5.77;;;20.50;99.90;;;;;;5090567;28;20447;-82
2022/01/19 01:31:01;;;;;;;22.73;5.57;;;20.50;99.90;;;;;;5089723;28;20468;-82
2022/01/19 01:33:28;;;;;;;18.57;5.57;;;20.60;99.90;;;;;;5090593;28;20377;-82
2022/01/19 01:35:55;;;;;;;17.75;4.93;;;20.60;99.90;;;;;;5090548;28;20443;-83
2022/01/19 01:38:22;;;;;;;20.47;5.53;;;20.80;99.90;;;;;;5088797;28;20454;-84
2022/01/19 01:40:49;;;;;;;17.33;5.07;;;20.80;99.90;;;;;;5090433;28;20471;-83
2022/01/19 01:43:16;;;;;;;22.48;5.40;;;21.00;99.90;;;;;;5090439;28;20455;-83
2022/01/19 01:45:47;;;;;;;20.47;5.07;;;21.00;99.90;;;;;;5090440;28;20364;-82
2022/01/19 01:48:17;;;;;;;21.10;5.40;;;21.00;99.90;;;;;;5090585;28;20895;-83
2022/01/19 01:53:32;;;;;;;19.85;4.97;;;21.40;99.90;;;;;;5090779;28;20409;-83
2022/01/19 01:56:10;;;;;;;19.88;4.45;;;21.50;99.90;;;;;;5090015;28;20381;-83
2022/01/19 01:58:40;;;;;;;19.58;4.55;;;21.50;99.90;;;;;;5089939;28;20365;-83
2022/01/19 02:01:09;;;;;;;16.85;4.40;;;21.70;99.90;;;;;;5090082;28;20411;-82
2022/01/19 02:03:40;;;;;;;16.85;3.97;;;21.90;99.90;;;;;;5088920;28;20369;-79
2022/01/19 02:23:55;;;;;;;15.52;3.60;;;22.60;99.90;;;;;;5089940;28;20498;-82
2022/01/19 02:26:06;;;;;;;13.55;3.60;;;22.60;99.90;;;;;;5086308;28;20376;-80
2022/01/19 02:42:23;;;;;;;13.35;3.20;;;23.50;99.90;;;;;;5089884;28;20367;-80
2022/01/19 02:49:52;;;;;;;13.82;3.35;;;24.00;99.90;;;;;;5089010;28;20401;-83
2022/01/19 02:52:20;;;;;;;15.18;3.50;;;23.60;99.90;;;;;;5088918;28;20383;-79
2022/01/19 02:54:48;;;;;;;14.20;3.28;;;23.40;99.90;;;;;;5089692;28;20465;-83
2022/01/19 02:57:16;;;;;;;14.20;3.20;;;23.40;99.90;;;;;;5089280;28;20395;-78
2022/01/19 03:10:34;;;;;;;11.50;2.87;;;25.30;99.10;;;;;;5089061;28;20426;-84
2022/01/19 03:13:01;;;;;;;12.35;2.80;;;25.20;98.80;;;;;;5088702;28;20774;-82
2022/01/19 03:15:28;;;;;;;14.35;3.05;;;25.00;98.50;;;;;;5088370;28;20376;-82
2022/01/19 03:17:58;;;;;;;13.80;3.10;;;24.90;99.00;;;;;;5089124;28;20723;-80
2022/01/19 03:20:27;;;;;;;11.35;2.88;;;24.90;99.10;;;;;;5088587;28;20417;-83
2022/01/19 03:23:13;;;;;;;13.90;2.95;;;25.10;98.60;;;;;;5088454;28;20426;-83
2022/01/19 03:25:40;;;;;;;13.07;3.00;;;25.20;99.00;;;;;;5088553;28;20379;-82
2022/01/19 03:28:07;;;;;;;11.23;2.90;;;25.10;97.90;;;;;;5088423;28;20875;-83
2022/01/19 03:30:35;;;;;;;11.30;2.70;;;25.10;97.50;;;;;;5088695;28;20419;-82
2022/01/19 03:33:02;;;;;;;11.43;2.83;;;25.20;96.10;;;;;;5088423;28;20736;-82
2022/01/19 03:35:29;;;;;;;10.77;2.60;;;25.30;96.40;;;;;;5088517;28;20368;-81
2022/01/19 03:37:56;;;;;;;9.55;2.60;;;25.30;96.80;;;;;;5088290;28;20525;-81
2022/01/19 03:40:23;;;;;;;9.93;2.63;;;25.20;96.80;;;;;;5088376;28;20376;-83
2022/01/19 03:42:51;;;;;;;9.82;2.60;;;25.00;95.50;;;;;;5088308;28;20407;-83
2022/01/19 03:45:18;;;;;;;12.05;2.58;;;25.30;96.60;;;;;;5088144;28;20455;-85
2022/01/19 03:47:53;;;;;;;9.05;2.47;;;26.10;96.80;;;;;;5088292;28;20875;-81
2022/01/19 03:50:21;;;;;;;7.50;2.17;;;26.60;92.60;;;;;;5088454;28;20380;-81
2022/01/19 03:52:48;;;;;;;14.15;2.88;;;26.50;91.20;;;;;;5088361;28;20453;-83
2022/01/19 03:55:15;;;;;;;8.98;2.28;;;26.20;91.50;;;;;;5088320;28;20464;-84
2022/01/19 03:57:42;;;;;;;9.70;2.40;;;25.60;91.70;;;;;;5088374;28;20426;-84
2022/01/19 04:00:11;;;;;;;10.98;2.35;;;25.10;92.90;;;;;;5088245;28;20432;-85
2022/01/19 04:02:38;;;;;;;9.85;2.42;;;24.70;94.20;;;;;;5088413;28;20363;-83
2022/01/19 04:05:14;;;;;;;10.07;2.40;;;24.30;95.10;;;;;;5088218;28;20380;-83
2022/01/19 04:11:02;;;;;;;8.27;2.22;;;24.30;97.70;;;;;;5088358;28;20363;-81
2022/01/19 04:15:57;;;;;;;9.30;2.25;;;24.40;95.50;;;;;;5088402;28;20388;-83
2022/01/19 04:18:24;;;;;;;11.00;2.50;;;24.30;96.10;;;;;;5088592;28;20736;-84
2022/01/19 04:20:52;;;;;;;11.77;2.50;;;24.30;96.50;;;;;;5088186;28;20701;-83
2022/01/19 04:23:21;;;;;;;10.70;2.22;;;24.20;96.40;;;;;;5088047;28;20925;-84
2022/01/19 04:25:49;;;;;;;11.02;2.97;;;23.90;97.10;;;;;;5088055;28;20427;-84
2022/01/19 04:28:16;;;;;;;9.38;2.40;;;23.60;99.90;;;;;;5090352;28;20423;-83
2022/01/19 04:30:44;;;;;;;8.55;2.10;;;23.00;99.90;;;;;;5091684;28;20369;-84
2022/01/19 04:33:18;;;;;;;8.32;2.22;;;22.30;99.90;;;;;;5091565;28;20389;-83
2022/01/19 04:36:07;;;;;;;6.88;2.05;;;21.90;99.90;;;;;;5091886;28;20369;-81
2022/01/19 05:05:50;;;;;;;6.05;1.60;;;20.10;99.90;;;;;;5091381;28;20360;-80
2022/01/19 05:08:57;;;;;;;6.93;2.05;;;20.10;99.90;;;;;;5090855;28;20491;-82
2022/01/19 05:13:55;;;;;;;8.02;2.38;;;20.20;99.90;;;;;;5091090;28;20431;-80
2022/01/19 05:16:23;;;;;;;6.85;2.03;;;20.30;99.90;;;;;;5091081;28;20564;-81
2022/01/19 05:18:51;;;;;;;8.55;2.33;;;20.30;99.90;;;;;;5090828;28;20867;-80
2022/01/19 05:21:19;;;;;;;10.65;2.75;;;20.30;99.90;;;;;;5090846;28;20766;-84
2022/01/19 05:23:46;;;;;;;13.23;3.10;;;20.40;99.90;;;;;;5090771;28;20446;-82
2022/01/19 05:26:13;;;;;;;11.75;3.25;;;20.30;99.90;;;;;;5090768;28;20499;-80
2022/01/19 05:28:40;;;;;;;13.05;3.22;;;20.20;99.90;;;;;;5090659;28;20400;-81
2022/01/19 05:31:08;;;;;;;11.87;3.40;;;20.20;99.90;;;;;;5090742;28;20387;-81
2022/01/19 05:33:35;;;;;;;11.13;3.10;;;20.10;99.90;;;;;;5090963;28;20372;-82
2022/01/19 05:36:02;;;;;;;10.48;2.60;;;20.00;99.90;;;;;;5090962;28;20852;-82
2022/01/19 05:38:29;;;;;;;11.50;2.63;;;19.80;99.90;;;;;;5090292;28;20487;-79
2022/01/19 05:40:56;;;;;;;9.00;2.70;;;19.70;99.90;;;;;;5090795;28;20390;-81
2022/01/19 05:43:23;;;;;;;10.73;2.57;;;19.70;99.90;;;;;;5090293;28;20372;-82
2022/01/19 05:45:51;;;;;;;13.03;2.73;;;19.70;99.90;;;;;;5090458;28;20415;-83
2022/01/19 05:48:18;;;;;;;11.32;2.70;;;19.70;99.90;;;;;;5090373;28;20400;-81
2022/01/19 05:50:45;;;;;;;9.85;2.60;;;19.70;99.90;;;;;;5090289;28;20372;-83
2022/01/19 05:53:13;;;;;;;14.25;2.83;;;19.80;99.90;;;;;;5090323;28;20855;-81
2022/01/19 05:55:40;;;;;;;12.23;2.90;;;19.80;99.90;;;;;;5090181;28;20376;-83
2022/01/19 05:58:07;;;;;;;12.43;2.88;;;19.90;99.90;;;;;;5090312;28;20383;-82
2022/01/19 06:00:34;;;;;;;9.40;2.60;;;20.00;99.90;;;;;;5090205;28;20376;-84
2022/01/19 06:03:01;;;;;;;11.70;2.63;;;20.10;99.90;;;;;;5089906;28;20429;-80
2022/01/19 06:05:28;;;;;;;12.50;2.70;;;20.20;99.90;;;;;;5089891;28;20455;-80
2022/01/19 06:08:11;;;;;;;13.05;3.13;;;20.30;99.90;;;;;;5089666;28;20858;-81
2022/01/19 06:10:48;;;;;;;12.20;2.70;;;20.50;99.90;;;;;;5089808;28;20747;-83
2022/01/19 06:13:16;;;;;;;15.10;2.92;;;20.60;99.90;;;;;;5089720;28;20364;-83
2022/01/19 06:15:45;;;;;;;12.05;2.90;;;20.60;99.90;;;;;;5089846;28;20379;-80
2022/01/19 06:18:13;;;;;;;11.27;2.95;;;20.50;99.90;;;;;;5089665;28;20407;-83
2022/01/19 06:20:40;;;;;;;11.68;2.70;;;20.50;99.90;;;;;;5089732;28;20457;-80
2022/01/19 06:23:08;;;;;;;12.45;3.03;;;20.40;99.90;;;;;;5089535;28;20369;-80
2022/01/19 06:25:35;;;;;;;12.68;2.70;;;20.50;99.90;;;;;;5089290;28;20498;-81
2022/01/19 06:28:03;;;;;;;11.40;2.83;;;20.50;99.90;;;;;;5089435;28;20388;-80
2022/01/19 06:30:30;;;;;;;14.25;3.10;;;20.40;99.90;;;;;;5089517;28;20871;-81
2022/01/19 06:32:57;;;;;;;9.50;2.90;;;20.20;99.90;;;;;;5089678;28;20433;-80
2022/01/19 06:35:24;;;;;;;15.75;3.42;;;19.90;99.90;;;;;;5089418;28;20808;-80
2022/01/19 06:37:51;;;;;;;11.35;2.70;;;19.70;99.90;;;;;;5087828;28;20491;-83
2022/01/19 06:40:20;;;;;;;11.57;2.72;;;19.60;99.90;;;;;;5089228;28;20408;-81
2022/01/19 06:42:47;;;;;;;8.15;2.45;;;19.50;99.90;;;;;;5089082;28;20376;-80
2022/01/19 06:45:15;;;;;;;10.65;2.60;;;19.40;99.90;;;;;;5089180;28;20400;-81
2022/01/19 06:47:42;;;;;;;10.40;2.42;;;19.30;99.90;;;;;;5088888;28;20896;-80
2022/01/19 06:50:11;;;;;;;12.35;2.80;;;19.30;99.90;;;;;;5088569;28;20387;-82
2022/01/19 06:52:38;;;;;;;12.03;2.73;;;19.30;99.90;;;;;;5089003;28;20368;-81
2022/01/19 06:55:09;;;;;;;11.93;3.03;;;19.20;99.90;;;;;;5089050;28;20463;-81
2022/01/19 06:57:36;;;;;;;11.10;2.70;;;19.20;99.90;;;;;;5089179;28;20400;-81
2022/01/19 07:00:05;;;;;;;12.83;2.83;;;19.20;99.90;;;;;;5088941;28;20377;-81
2022/01/19 07:02:32;;;;;;;10.60;3.00;;;19.20;99.90;;;;;;5088895;28;20455;-76
2022/01/19 07:05:00;;;;;;;12.82;2.80;;;19.30;99.90;;;;;;5089001;28;20861;-81
2022/01/19 07:07:27;;;;;;;14.65;3.10;;;19.50;99.90;;;;;;5088779;28;20449;-83
2022/01/19 07:09:54;;;;;;;12.95;3.05;;;19.70;99.90;;;;;;5088808;28;20403;-82
2022/01/19 07:12:21;;;;;;;11.30;2.92;;;19.90;99.90;;;;;;5088713;28;20367;-78
2022/01/19 07:14:49;;;;;;;12.73;2.92;;;19.90;99.90;;;;;;5088752;28;20465;-81
2022/01/19 07:17:15;;;;;;;13.03;3.13;;;19.90;99.90;;;;;;5088655;28;20368;-81
2022/01/19 07:19:42;;;;;;;11.80;2.88;;;19.80;99.90;;;;;;5088704;28;20700;-81
2022/01/19 07:22:09;;;;;;;9.75;2.85;;;19.80;99.90;;;;;;5087315;28;20747;-81
2022/01/19 07:24:36;;;;;;;14.45;3.03;;;19.90;99.90;;;;;;5088660;28;20466;-80
2022/01/19 07:27:03;;;;;;;11.77;2.90;;;19.90;99.90;;;;;;5088666;28;20412;-79
2022/01/19 07:29:30;;;;;;;14.40;3.30;;;19.90;99.90;;;;;;5088293;28;20404;-80
2022/01/19 07:31:58;;;;;;;13.90;3.08;;;19.90;99.90;;;;;;5088566;28;20364;-78
2022/01/19 07:34:25;;;;;;;13.00;3.17;;;19.80;99.90;;;;;;5088707;28;20372;-80
2022/01/19 07:36:56;;;;;;;13.38;3.00;;;19.80;99.90;;;;;;5088421;28;20430;-81
2022/01/19 07:39:24;;;;;;;14.98;3.00;;;19.90;99.90;;;;;;5088481;28;20476;-80
2022/01/19 07:41:53;;;;;;;13.50;3.00;;;19.80;99.90;;;;;;5088507;28;20459;-80
2022/01/19 07:44:20;;;;;;;13.45;2.90;;;19.80;99.90;;;;;;5088380;28;20377;-81
2022/01/19 07:46:48;;;;;;;16.05;3.45;;;19.70;99.90;;;;;;5088623;28;20407;-81
2022/01/19 07:49:15;;;;;;;13.70;3.28;;;19.70;99.90;;;;;;5088229;28;20457;-80
2022/01/19 07:51:42;;;;;;;13.82;3.10;;;19.60;99.90;;;;;;5088321;28;20883;-80
2022/01/19 07:54:09;;;;;;;11.65;3.05;;;19.50;99.90;;;;;;5088406;28;20372;-80
2022/01/19 07:56:37;;;;;;;14.23;2.85;;;19.40;99.90;;;;;;5088280;28;20723;-82
2022/01/19 07:59:04;;;;;;;16.35;3.42;;;19.40;99.90;;;;;;5088643;28;20381;-81
2022/01/19 08:01:31;;;;;;;20.80;3.55;;;19.40;99.90;;;;;;5088266;28;20774;-81
2022/01/19 08:04:01;;;;;;;17.55;3.50;;;19.40;99.90;;;;;;5092036;28;20417;-80
2022/01/19 08:06:28;;;;;;;14.75;3.20;;;19.40;99.90;;;;;;5092283;28;20857;-79
2022/01/19 08:08:55;;;;;;;19.75;4.13;;;19.40;99.90;;;;;;5092080;28;20404;-80
2022/01/19 08:11:23;;;;;;;20.23;3.45;;;19.40;99.90;;;;;;5092385;28;20515;-82
2022/01/19 08:13:50;;;;;;;15.43;3.40;;;19.40;99.90;;;;;;5091899;28;20395;-78
2022/01/19 08:16:18;;;;;;;17.60;3.60;;;19.30;99.90;;;;;;5091976;28;20447;-80
2022/01/19 08:18:45;;;;;;;14.53;3.20;;;19.30;99.90;;;;;;5091956;28;20430;-76
2022/01/19 08:21:12;;;;;;;15.98;3.45;;;19.40;99.90;;;;;;5091924;28;20452;-81
2022/01/19 08:23:39;;;;;;;14.68;3.67;;;19.30;99.90;;;;;;5091850;28;20410;-81
2022/01/19 08:26:06;;;;;;;18.83;3.70;;;19.30;99.90;;;;;;5091747;28;20379;-81
2022/01/19 08:28:34;;;;;;;20.23;3.90;;;19.20;99.90;;;;;;5091708;28;20403;-80
2022/01/19 08:31:01;;;;;;;18.15;3.50;;;19.30;99.90;;;;;;5091620;28;20390;-79
2022/01/19 08:33:27;;;;;;;17.02;3.35;;;19.30;99.90;;;;;;5091490;28;20820;-80
2022/01/19 08:35:54;;;;;;;14.32;3.67;;;19.20;99.90;;;;;;5091627;28;20404;-79
2022/01/19 08:38:21;;;;;;;17.50;3.50;;;19.20;99.90;;;;;;5091457;28;20893;-80
2022/01/19 08:40:48;;;;;;;18.50;3.40;;;19.10;99.90;;;;;;5091489;28;20451;-81
2022/01/19 08:43:15;;;;;;;14.50;3.42;;;19.20;99.90;;;;;;5091492;28;20804;-78
2022/01/19 08:45:44;;;;;;;15.85;3.20;;;19.10;99.90;;;;;;5091453;28;20457;-80
2022/01/19 08:48:11;;;;;;;15.50;3.20;;;19.10;99.90;;;;;;5091421;28;20389;-79
2022/01/19 08:50:38;;;;;;;14.00;2.97;;;19.10;99.90;;;;;;5091265;28;20373;-81
2022/01/19 08:53:05;;;;;;;16.57;3.50;;;19.10;99.90;;;;;;5091412;28;20383;-81
2022/01/19 08:55:32;;;;;;;14.18;3.17;;;19.10;99.90;;;;;;5091283;28;20459;-78
2022/01/19 08:57:59;;;;;;;17.33;3.58;;;19.10;99.90;;;;;;5091316;28;20734;-79
2022/01/19 09:00:26;;;;;;;15.55;3.20;;;19.00;99.90;;;;;;5091138;28;20742;-81
2022/01/19 09:02:53;;;;;;;16.35;3.25;;;19.00;99.90;;;;;;5091281;28;20364;-81
2022/01/19 09:05:20;;;;;;;14.55;3.13;;;19.00;99.90;;;;;;5091118;28;20364;-84
2022/01/19 09:07:47;;;;;;;14.98;3.13;;;19.10;99.90;;;;;;5091350;28;20368;-83
2022/01/19 09:10:15;;;;;;;16.02;3.15;;;19.00;99.90;;;;;;5091097;28;20388;-80
2022/01/19 09:12:42;;;;;;;13.18;2.50;;;19.00;99.90;;;;;;5090742;28;20399;-80
2022/01/19 09:15:11;;;;;;;14.85;3.20;;;18.90;99.90;;;;;;5091097;28;20376;-79
2022/01/19 09:17:41;;;;;;;14.80;3.13;;;18.90;99.90;;;;;;5091059;28;20433;-80
2022/01/19 09:20:09;;;;;;;15.52;3.10;;;18.90;99.90;;;;;;5090875;28;20376;-80
2022/01/19 09:22:36;;;;;;;18.65;3.50;;;18.90;99.90;;;;;;5090948;28;20922;-80
2022/01/19 09:25:06;;;;;;;13.75;2.78;;;18.90;99.90;;;;;;5090731;28;20716;-81
2022/01/19 09:27:33;;;;;;;12.13;2.90;;;18.90;99.90;;;;;;5090760;28;20360;-80
2022/01/19 09:30:01;;;;;;;13.50;2.90;;;18.90;99.90;;;;;;5090634;28;20396;-82
2022/01/19 09:32:28;;;;;;;12.98;2.92;;;18.90;99.90;;;;;;5090640;28;20893;-80
2022/01/19 09:35:04;;;;;;;16.63;3.20;;;18.90;99.90;;;;;;5090594;28;20429;-81
2022/01/19 09:41:07;;;;;;;17.10;3.25;;;18.80;99.90;;;;;;5089405;28;20383;-81
2022/01/19 09:43:35;;;;;;;13.77;2.90;;;18.80;99.90;;;;;;5090773;28;20387;-80
2022/01/19 09:46:04;;;;;;;16.85;3.00;;;18.80;99.90;;;;;;5090506;28;20380;-80
2022/01/19 09:48:30;;;;;;;16.52;3.10;;;18.80;99.90;;;;;;5090332;28;20423;-80
2022/01/19 09:50:58;;;;;;;14.10;3.20;;;18.70;99.90;;;;;;5090362;28;20372;-81
2022/01/19 09:53:26;;;;;;;14.18;3.30;;;18.70;99.90;;;;;;5089270;28;20414;-81
2022/01/19 09:55:53;;;;;;;15.70;3.07;;;18.80;99.90;;;;;;5090228;28;20376;-81
2022/01/19 09:58:22;;;;;;;14.70;2.78;;;18.70;99.90;;;;;;5090270;28;20859;-80
2022/01/19 10:00:50;;;;;;;16.50;3.05;;;18.70;99.90;;;;;;5090171;28;20383;-79
2022/01/19 10:03:25;;;;;;;14.27;2.90;;;18.80;99.90;;;;;;5090008;28;20384;-81
2022/01/19 10:05:56;;;;;;;16.35;3.10;;;18.80;99.90;;;;;;5089896;28;20397;-81
2022/01/19 10:08:38;;;;;;;14.47;2.90;;;18.90;99.90;;;;;;5089758;28;20921;-80
2022/01/19 10:11:22;;;;;;;15.15;3.30;;;18.80;99.90;;;;;;5090088;28;20383;-79
2022/01/19 10:17:01;;;;;;;15.55;3.08;;;18.80;99.90;;;;;;5090242;28;20360;-81
2022/01/19 10:19:29;;;;;;;13.60;2.72;;;18.90;99.90;;;;;;5089637;28;20352;-81
2022/01/19 10:22:06;;;;;;;15.45;2.88;;;18.80;99.90;;;;;;5089909;28;20855;-80
2022/01/19 10:25:01;;;;;;;15.13;3.15;;;18.80;99.90;;;;;;5089012;28;20359;-80
2022/01/19 10:27:37;;;;;;;14.57;2.90;;;18.80;99.90;;;;;;5089599;28;20376;-80
2022/01/19 10:30:04;;;;;;;13.95;2.85;;;18.80;99.90;;;;;;5089467;28;20459;-80
2022/01/19 10:32:31;;;;;;;17.10;3.30;;;18.80;99.90;;;;;;5089434;28;20400;-80
2022/01/19 10:35:11;;;;;;;19.05;2.92;;;18.90;99.90;;;;;;5089967;28;20867;-80
2022/01/19 10:37:38;;;;;;;17.20;2.90;;;18.90;99.90;;;;;;5089165;28;20916;-79
2022/01/19 10:40:06;;;;;;;14.33;2.80;;;18.80;99.90;;;;;;5089032;28;20441;-80
2022/01/19 10:42:34;;;;;;;17.77;3.13;;;18.80;99.90;;;;;;5090070;28;20795;-80
2022/01/19 10:45:06;;;;;;;18.42;3.35;;;18.80;99.90;;;;;;5089162;28;20384;-79
2022/01/19 10:47:38;;;;;;;19.92;3.22;;;18.70;99.90;;;;;;5089495;28;20847;-80
2022/01/19 10:50:06;;;;;;;15.67;3.17;;;18.70;99.90;;;;;;5089749;28;20388;-80
2022/01/19 10:52:39;;;;;;;18.73;3.30;;;18.70;99.90;;;;;;5088929;28;20466;-80
2022/01/19 10:55:10;;;;;;;19.98;3.22;;;18.70;99.90;;;;;;5089730;28;20451;-79
2022/01/19 10:57:40;;;;;;;15.20;3.20;;;18.60;99.90;;;;;;5089352;28;20410;-80
2022/01/19 11:00:21;;;;;;;18.25;2.95;;;18.50;99.90;;;;;;5089203;28;20368;-80
2022/01/19 11:02:49;;;;;;;14.73;2.72;;;18.50;99.90;;;;;;5088010;28;20365;-80
2022/01/19 11:05:18;;;;;;;13.15;2.72;;;18.40;99.90;;;;;;5089653;28;20444;-81
2022/01/19 11:07:45;;;;;;;21.13;3.40;;;18.30;99.90;;;;;;5089289;28;20398;-80
2022/01/19 11:10:17;;;;;;;20.67;2.90;;;18.30;99.90;;;;;;5088850;28;20794;-81
2022/01/19 11:12:49;;;;;;;17.37;3.10;;;18.30;99.90;;;;;;5088864;28;20360;-81
2022/01/19 11:15:19;;;;;;;13.65;3.10;;;18.30;99.90;;;;;;5088606;28;20375;-80
2022/01/19 11:17:47;;;;;;;17.70;3.05;;;18.20;99.90;;;;;;5088876;28;20425;-79
2022/01/19 11:20:20;;;;;;;13.45;2.92;;;18.20;99.90;;;;;;5089042;28;20447;-79
2022/01/19 11:23:23;;;;;;;12.70;3.00;;;18.20;99.90;;;;;;5088730;28;20380;-80
2022/01/19 11:26:01;;;;;;;15.10;2.73;;;18.10;99.90;;;;;;5088603;28;20458;-77
2022/01/19 11:28:38;;;;;;;17.35;2.95;;;18.10;99.90;;;;;;5088522;28;20483;-80
2022/01/19 11:31:15;;;;;;;14.82;2.83;;;18.10;99.90;;;;;;5088022;28;20871;-79
2022/01/19 11:33:47;;;;;;;14.93;2.83;;;18.10;99.90;;;;;;5088440;28;20399;-80
2022/01/19 11:36:34;;;;;;;15.90;2.85;;;18.00;99.90;;;;;;5088288;28;20459;-81
2022/01/19 11:39:21;;;;;;;15.48;2.80;;;18.00;99.90;;;;;;5088448;28;20426;-80
2022/01/19 11:41:56;;;;;;;17.38;3.03;;;17.90;99.90;;;;;;5088368;28;20384;-80
2022/01/19 11:44:29;;;;;;;17.08;2.97;;;17.90;99.90;;;;;;5088435;28;20442;-80
2022/01/19 11:46:59;;;;;;;17.65;3.40;;;17.90;99.90;;;;;;5088698;28;20833;-80
2022/01/19 11:50:04;;;;;;;18.35;3.55;;;17.90;99.90;;;;;;5088265;28;20401;-79
2022/01/19 11:52:40;;;;;;;18.55;3.97;;;17.90;99.90;;;;;;5066929;28;20390;-79
2022/01/19 11:55:26;;;;;;;17.88;4.10;;;17.90;99.90;;;;;;5088366;28;20373;-76
2022/01/19 11:58:20;;;;;;;16.70;3.20;;;17.90;99.90;;;;;;5088270;28;20372;-80
2022/01/19 12:00:50;;;;;;;14.70;2.70;;;18.00;99.90;;;;;;5088187;28;20502;-78
2022/01/19 12:03:25;;;;;;;15.55;3.22;;;18.10;99.90;;;;;;5088243;28;20360;-80
2022/01/19 12:05:54;;;;;;;20.83;3.50;;;18.10;99.90;;;;;;5089357;28;20812;-79
2022/01/19 12:08:33;;;;;;;15.15;3.25;;;18.20;99.90;;;;;;5088116;28;20400;-78
2022/01/19 12:11:15;;;;;;;20.00;3.45;;;18.20;99.90;;;;;;5089096;28;20384;-79
2022/01/19 12:16:53;;;;;;;16.63;3.03;;;18.30;99.90;;;;;;5088262;28;20380;-78
2022/01/19 12:19:23;;;;;;;18.30;2.90;;;18.30;99.90;;;;;;5088203;28;20885;-80
2022/01/19 12:21:54;;;;;;;16.88;2.83;;;18.30;99.90;;;;;;5088404;28;20455;-79
2022/01/19 12:24:34;;;;;;;15.23;2.97;;;18.30;99.90;;;;;;5088208;28;20380;-80
2022/01/19 12:27:09;;;;;;;17.35;2.90;;;18.40;99.90;;;;;;5088285;28;20377;-80
2022/01/19 12:29:38;;;;;;;16.33;2.80;;;18.50;99.90;;;;;;5086755;28;20451;-81
2022/01/19 12:32:08;;;;;;;14.38;2.80;;;18.50;99.90;;;;;;5088287;28;20732;-82
2022/01/19 12:34:56;;;;;;;11.50;2.40;;;18.60;99.90;;;;;;5087991;28;20379;-81
2022/01/19 12:37:42;;;;;;;14.73;2.60;;;18.70;99.90;;;;;;5088479;28;20459;-80
2022/01/19 12:40:27;;;;;;;12.52;2.53;;;18.70;99.90;;;;;;5087929;28;20798;-79
2022/01/19 12:43:00;;;;;;;13.45;2.45;;;18.70;99.90;;;;;;5088183;28;20854;-78
2022/01/19 12:45:28;;;;;;;16.67;2.80;;;18.80;99.90;;;;;;5087965;28;20381;-81
2022/01/19 12:47:57;;;;;;;15.48;2.60;;;19.00;99.90;;;;;;5088548;28;20364;-78
2022/01/19 12:50:30;;;;;;;16.37;2.87;;;19.00;99.90;;;;;;5091611;28;20421;-77
2022/01/19 12:53:00;;;;;;;16.38;2.72;;;19.00;99.90;;;;;;5091558;28;20368;-77
2022/01/19 12:55:29;;;;;;;22.38;3.20;;;19.10;99.90;;;;;;5091529;28;20369;-81
2022/01/19 12:57:58;;;;;;;24.05;3.30;;;19.10;99.90;;;;;;5092384;28;20764;-80
2022/01/19 13:00:31;;;;;;;21.00;3.10;;;19.10;99.90;;;;;;5091398;28;20785;-81
2022/01/19 13:02:59;;;;;;;24.58;3.30;;;19.10;99.90;;;;;;5091312;28;20371;-81
2022/01/19 13:05:30;;;;;;;21.27;3.10;;;19.10;99.90;;;;;;5091237;28;20376;-78
2022/01/19 13:08:02;;;;;;;21.83;3.08;;;19.10;99.90;;;;;;5091201;28;20460;-80
2022/01/19 13:13:19;;;;;;;19.27;2.97;;;18.90;99.90;;;;;;5091176;28;20364;-80
2022/01/19 13:15:49;;;;;;;19.90;3.17;;;18.90;99.90;;;;;;5090966;28;20376;-76
2022/01/19 13:18:34;;;;;;;20.43;3.10;;;19.00;99.90;;;;;;5091039;28;20486;-78
2022/01/19 13:21:25;;;;;;;17.17;3.63;;;19.00;99.90;;;;;;5090794;28;20899;-77
2022/01/19 13:23:58;;;;;;;20.83;3.40;;;19.00;99.90;;;;;;5091612;28;20372;-79
2022/01/19 13:26:37;;;;;;;18.90;3.17;;;19.10;99.90;;;;;;5090806;28;20373;-80
2022/01/19 13:29:19;;;;;;;20.42;2.83;;;19.10;99.90;;;;;;5091100;28;20476;-78
2022/01/19 13:32:06;;;;;;;21.55;3.58;;;19.10;99.90;;;;;;5090586;28;20361;-81
2022/01/19 13:34:58;;;;;;;20.52;3.38;;;19.00;99.90;;;;;;5090616;28;20395;-82
2022/01/19 13:37:31;;;;;;;12.33;2.27;;;19.10;99.90;;;;;;5090749;28;20446;-84
2022/01/19 13:40:16;;;;;;;13.75;2.42;;;19.10;99.90;;;;;;5089721;28;20401;-82
2022/01/19 13:42:52;;;;;;;13.60;2.50;;;19.10;99.90;;;;;;5090599;28;20360;-80
2022/01/19 13:45:36;;;;;;;13.80;2.63;;;19.10;99.90;;;;;;5090495;28;20376;-80
2022/01/19 13:50:43;;;;;;;16.52;2.60;;;19.00;99.90;;;;;;5090860;28;20392;-78
2022/01/19 13:53:10;;;;;;;15.35;2.63;;;18.90;99.90;;;;;;5090209;28;20360;-81
2022/01/19 13:55:37;;;;;;;15.70;2.70;;;18.90;99.90;;;;;;5090171;28;20848;-82
2022/01/19 13:58:10;;;;;;;13.60;2.60;;;18.80;99.90;;;;;;5090135;28;20377;-81
2022/01/19 14:00:59;;;;;;;15.65;2.70;;;18.80;99.90;;;;;;5090016;28;20739;-82
2022/01/19 14:03:44;;;;;;;16.43;2.80;;;18.80;99.90;;;;;;5090031;28;20797;-79
2022/01/19 14:06:38;;;;;;;14.85;2.58;;;18.80;99.90;;;;;;5090019;28;20883;-82
2022/01/19 14:09:19;;;;;;;17.80;2.90;;;18.70;99.90;;;;;;5090681;28;20798;-82
2022/01/19 14:11:58;;;;;;;18.33;3.25;;;18.70;99.90;;;;;;5089941;28;20807;-79
2022/01/19 14:14:37;;;;;;;14.25;3.05;;;18.70;99.90;;;;;;5089896;28;20410;-79
2022/01/19 14:17:10;;;;;;;18.37;3.10;;;18.80;99.90;;;;;;5089593;28;20386;-79
2022/01/19 14:19:48;;;;;;;15.82;2.90;;;18.80;99.90;;;;;;5089900;28;20382;-79
2022/01/19 14:22:16;;;;;;;18.50;3.08;;;18.90;99.90;;;;;;5089950;28;20399;-76
2022/01/19 14:24:48;;;;;;;17.67;2.75;;;18.90;99.90;;;;;;5089895;28;20459;-77
2022/01/19 14:27:34;;;;;;;13.27;2.72;;;19.00;99.90;;;;;;5089579;28;20404;-76
2022/01/19 14:30:08;;;;;;;16.25;2.80;;;19.10;99.90;;;;;;5089519;28;20400;-77
2022/01/19 14:33:15;;;;;;;13.27;2.70;;;19.10;99.90;;;;;;5089470;28;20447;-81
2022/01/19 14:35:41;;;;;;;12.88;2.50;;;19.10;99.90;;;;;;5089482;28;20511;-80
2022/01/19 14:38:32;;;;;;;15.30;2.78;;;19.10;99.90;;;;;;5089246;28;20855;-77